Time;durP1;ratioP1;P1;durP2;ratioP2;P2;SDS_P1;SDS_P2;PMS_P1;PMS_P2;Temp;Humidity;BMP_temperature;BMP_pressure;BME280_temperature;BME280_humidity;BME280_pressure;Samples;Min_cycle;Max_cycle;Signal;HPM_P1;HPM_P2
2023/10/17 00:00:28;;;;;;;3.45;1.80;;;;;;;;;;4996616;28;20022;-65
2023/10/17 00:02:53;;;;;;;3.60;1.90;;;;;;;;;;4995957;28;20419;-65
2023/10/17 00:05:20;;;;;;;4.38;1.90;;;;;;;;;;4995941;28;20028;-65
2023/10/17 00:07:46;;;;;;;2.53;1.63;;;;;;;;;;4996379;28;20399;-65
2023/10/17 00:10:20;;;;;;;3.05;1.75;;;;;;;;;;4996012;28;20046;-65
2023/10/17 00:12:50;;;;;;;3.70;1.83;;;;;;;;;;4988578;28;20026;-65
2023/10/17 00:15:28;;;;;;;4.03;2.03;;;;;;;;;;4996095;28;20022;-65
2023/10/17 00:18:03;;;;;;;4.55;2.08;;;;;;;;;;4996308;28;20045;-65
2023/10/17 00:20:37;;;;;;;4.00;2.15;;;;;;;;;;4995964;28;20029;-65
2023/10/17 00:23:02;;;;;;;2.58;1.67;;;;;;;;;;4995854;28;20026;-65
2023/10/17 00:25:29;;;;;;;2.80;1.70;;;;;;;;;;4995967;28;20018;-65
2023/10/17 00:27:54;;;;;;;3.03;1.77;;;;;;;;;;4995738;28;20495;-65
2023/10/17 00:30:21;;;;;;;3.00;1.57;;;;;;;;;;4995760;28;20026;-65
2023/10/17 00:32:49;;;;;;;4.57;2.70;;;;;;;;;;4995628;28;20363;-65
2023/10/17 00:35:14;;;;;;;5.70;1.88;;;;;;;;;;4995350;28;20030;-65
2023/10/17 00:37:39;;;;;;;2.85;1.90;;;;;;;;;;4995527;28;20014;-65
2023/10/17 00:40:26;;;;;;;5.28;2.63;;;;;;;;;;4995867;28;20029;-65
2023/10/17 00:42:50;;;;;;;3.22;2.03;;;;;;;;;;4995431;28;20033;-65
2023/10/17 00:45:16;;;;;;;5.73;1.90;;;;;;;;;;4995382;28;20014;-65
2023/10/17 00:47:42;;;;;;;5.32;2.22;;;;;;;;;;4995398;28;20524;-65
2023/10/17 00:50:12;;;;;;;5.55;2.38;;;;;;;;;;4995755;28;20026;-65
2023/10/17 00:52:37;;;;;;;5.60;2.15;;;;;;;;;;4995048;28;20019;-65
2023/10/17 00:55:04;;;;;;;2.92;2.17;;;;;;;;;;4995238;28;20029;-65
2023/10/17 00:57:29;;;;;;;4.97;2.58;;;;;;;;;;4995288;28;20022;-65
2023/10/17 01:00:08;;;;;;;4.00;2.00;;;;;;;;;;4995154;28;20026;-65
2023/10/17 01:02:44;;;;;;;3.08;2.20;;;;;;;;;;4994984;28;20076;-65
2023/10/17 01:05:11;;;;;;;4.90;2.35;;;;;;;;;;4995309;28;20038;-65
2023/10/17 01:07:39;;;;;;;3.72;2.20;;;;;;;;;;4995364;28;20447;-65
2023/10/17 01:10:16;;;;;;;4.53;2.40;;;;;;;;;;4995127;28;20525;-65
2023/10/17 01:12:56;;;;;;;4.82;2.20;;;;;;;;;;4994869;28;20034;-65
2023/10/17 01:15:23;;;;;;;3.63;2.17;;;;;;;;;;4995183;28;20069;-65
2023/10/17 01:17:48;;;;;;;5.53;2.30;;;;;;;;;;4994901;28;20022;-65
2023/10/17 01:20:19;;;;;;;4.53;2.15;;;;;;;;;;4994613;28;20022;-65
2023/10/17 01:22:44;;;;;;;3.35;2.38;;;;;;;;;;4994927;28;20037;-65
2023/10/17 01:25:25;;;;;;;5.80;2.92;;;;;;;;;;4994670;28;20097;-65
2023/10/17 01:27:54;;;;;;;4.20;2.28;;;;;;;;;;4994373;28;20045;-65
2023/10/17 01:30:19;;;;;;;7.50;2.03;;;;;;;;;;4994969;28;20022;-65
2023/10/17 01:32:46;;;;;;;4.97;2.33;;;;;;;;;;4994563;28;20386;-65
2023/10/17 01:35:12;;;;;;;4.40;2.42;;;;;;;;;;4994254;28;20033;-65
2023/10/17 01:37:38;;;;;;;5.63;2.05;;;;;;;;;;4994466;28;20014;-65
2023/10/17 01:40:10;;;;;;;3.95;2.30;;;;;;;;;;4994428;28;20071;-65
2023/10/17 01:42:37;;;;;;;3.92;1.77;;;;;;;;;;4994743;28;20049;-65
2023/10/17 01:45:05;;;;;;;5.07;2.00;;;;;;;;;;4994662;28;20041;-65
2023/10/17 01:47:30;;;;;;;5.40;2.50;;;;;;;;;;4994440;28;20066;-65
2023/10/17 01:49:57;;;;;;;3.10;1.67;;;;;;;;;;4993710;28;20471;-65
2023/10/17 01:52:22;;;;;;;3.47;2.08;;;;;;;;;;4994239;28;20319;-65
2023/10/17 01:54:49;;;;;;;3.53;2.10;;;;;;;;;;4994532;28;20026;-65
2023/10/17 01:57:17;;;;;;;3.53;1.85;;;;;;;;;;4994208;28;20498;-65
2023/10/17 01:59:42;;;;;;;3.95;2.38;;;;;;;;;;4993996;28;20027;-65
2023/10/17 02:02:07;;;;;;;4.47;2.42;;;;;;;;;;4994328;28;20029;-65
2023/10/17 02:04:35;;;;;;;4.75;2.28;;;;;;;;;;4994094;28;20053;-65
2023/10/17 02:07:01;;;;;;;5.63;2.30;;;;;;;;;;4993706;28;20036;-65
2023/10/17 02:11:55;;;;;;;5.20;2.33;;;;;;;;;;4993432;28;20491;-65
2023/10/17 02:14:21;;;;;;;4.88;2.30;;;;;;;;;;4993475;28;20117;-65
2023/10/17 02:16:46;;;;;;;6.22;2.40;;;;;;;;;;4994137;28;20093;-65
2023/10/17 02:19:12;;;;;;;6.07;2.50;;;;;;;;;;4993816;28;20073;-65
2023/10/17 02:21:39;;;;;;;5.07;2.40;;;;;;;;;;4993806;28;20323;-65
2023/10/17 02:24:05;;;;;;;5.18;2.22;;;;;;;;;;4993934;28;20033;-65
2023/10/17 02:26:31;;;;;;;4.07;2.33;;;;;;;;;;4993535;28;20026;-65
2023/10/17 02:28:59;;;;;;;3.90;2.20;;;;;;;;;;4994000;28;20037;-65
2023/10/17 02:31:29;;;;;;;4.32;2.10;;;;;;;;;;4993633;28;20109;-65
2023/10/17 02:33:54;;;;;;;5.45;2.10;;;;;;;;;;4993638;28;20022;-65
2023/10/17 02:36:20;;;;;;;2.25;1.80;;;;;;;;;;4992295;28;20029;-65
2023/10/17 02:38:45;;;;;;;5.90;2.20;;;;;;;;;;4993522;28;20161;-65
2023/10/17 02:41:12;;;;;;;3.55;2.25;;;;;;;;;;4993639;28;20076;-65
2023/10/17 02:43:40;;;;;;;4.25;2.33;;;;;;;;;;4993649;28;20524;-65
2023/10/17 02:46:05;;;;;;;5.70;2.05;;;;;;;;;;4993645;28;20097;-65
2023/10/17 02:48:37;;;;;;;3.03;2.05;;;;;;;;;;4993611;28;20170;-65
2023/10/17 02:51:03;;;;;;;3.97;2.65;;;;;;;;;;4993263;28;20386;-65
2023/10/17 02:53:29;;;;;;;3.92;2.10;;;;;;;;;;4993683;28;20022;-65
2023/10/17 02:55:55;;;;;;;3.97;2.22;;;;;;;;;;4993411;28;20041;-65
2023/10/17 02:58:21;;;;;;;3.10;2.28;;;;;;;;;;4993339;28;20022;-65
2023/10/17 03:00:50;;;;;;;4.57;2.27;;;;;;;;;;4992922;28;20050;-65
2023/10/17 03:03:18;;;;;;;5.35;2.50;;;;;;;;;;4997032;28;20282;-65
2023/10/17 03:06:05;;;;;;;5.18;2.35;;;;;;;;;;4997384;28;20544;-65
2023/10/17 03:08:36;;;;;;;7.65;3.30;;;;;;;;;;4997055;28;20120;-65
2023/10/17 03:11:01;;;;;;;4.25;2.60;;;;;;;;;;4996827;28;20082;-65
2023/10/17 03:13:39;;;;;;;5.60;2.50;;;;;;;;;;4997232;28;20104;-65
2023/10/17 03:16:16;;;;;;;3.65;2.38;;;;;;;;;;4982105;28;20748;-65
2023/10/17 03:18:45;;;;;;;4.95;2.88;;;;;;;;;;4997442;28;20029;-65
2023/10/17 03:21:11;;;;;;;3.92;2.58;;;;;;;;;;4997165;28;20027;-65
2023/10/17 03:23:37;;;;;;;4.15;2.47;;;;;;;;;;4997274;28;20038;-65
2023/10/17 03:26:02;;;;;;;4.03;2.50;;;;;;;;;;4995773;28;20025;-65
2023/10/17 03:28:28;;;;;;;6.17;2.77;;;;;;;;;;4996632;28;20030;-65
2023/10/17 03:30:53;;;;;;;7.40;2.88;;;;;;;;;;4996862;28;20085;-65
2023/10/17 03:33:27;;;;;;;4.05;2.70;;;;;;;;;;4996908;28;20029;-65
2023/10/17 03:36:04;;;;;;;4.63;2.60;;;;;;;;;;4996800;28;20022;-65
2023/10/17 03:38:33;;;;;;;5.85;3.28;;;;;;;;;;4997040;28;20049;-65
2023/10/17 03:41:02;;;;;;;5.57;2.83;;;;;;;;;;4996613;28;20494;-65
2023/10/17 03:43:38;;;;;;;6.60;3.15;;;;;;;;;;4996491;28;20722;-65
2023/10/17 03:46:05;;;;;;;3.80;2.65;;;;;;;;;;4996882;28;20014;-65
2023/10/17 03:48:32;;;;;;;5.65;2.67;;;;;;;;;;4996386;28;20030;-65
2023/10/17 03:53:36;;;;;;;6.40;3.15;;;;;;;;;;4996418;28;20483;-65
2023/10/17 03:56:01;;;;;;;5.47;2.75;;;;;;;;;;4996435;28;20030;-65
2023/10/17 04:00:53;;;;;;;4.10;3.00;;;;;;;;;;4995544;28;20268;-65
2023/10/17 04:03:21;;;;;;;6.47;3.13;;;;;;;;;;4996279;28;20380;-65
2023/10/17 04:05:50;;;;;;;7.07;3.40;;;;;;;;;;4996244;28;20458;-65
2023/10/17 04:08:17;;;;;;;5.93;3.08;;;;;;;;;;4990599;28;20079;-65
2023/10/17 04:10:49;;;;;;;5.22;3.35;;;;;;;;;;4995187;28;20085;-65
2023/10/17 04:13:34;;;;;;;7.00;2.92;;;;;;;;;;4995988;28;20037;-64
2023/10/17 04:15:59;;;;;;;7.40;3.35;;;;;;;;;;4984793;28;20019;-64
2023/10/17 04:18:24;;;;;;;6.22;3.22;;;;;;;;;;4986842;28;20025;-64
2023/10/17 04:20:54;;;;;;;8.70;2.97;;;;;;;;;;4986707;28;20026;-64
2023/10/17 04:23:21;;;;;;;5.53;3.08;;;;;;;;;;4987515;28;20482;-64
2023/10/17 04:25:54;;;;;;;4.93;2.65;;;;;;;;;;4987176;28;20018;-64
2023/10/17 04:28:19;;;;;;;7.35;3.30;;;;;;;;;;4990092;28;20021;-64
2023/10/17 04:30:47;;;;;;;4.82;3.00;;;;;;;;;;4985558;28;20014;-64
2023/10/17 04:33:13;;;;;;;4.82;3.05;;;;;;;;;;4985553;28;20010;-64
2023/10/17 04:35:46;;;;;;;4.28;2.72;;;;;;;;;;4986862;28;20025;-64
2023/10/17 04:43:56;;;;;;;4.70;3.03;;;;;;;;;;4974838;28;20096;-64
2023/10/17 04:46:26;;;;;;;5.70;3.10;;;;;;;;;;4974283;28;20027;-64
2023/10/17 04:48:52;;;;;;;7.53;3.45;;;;;;;;;;4976593;28;20109;-64
2023/10/17 04:53:49;;;;;;;4.43;3.00;;;;;;;;;;4976643;28;20038;-64
2023/10/17 04:56:19;;;;;;;5.18;2.80;;;;;;;;;;4976221;28;20092;-64
2023/10/17 05:04:00;;;;;;;4.50;2.50;;;;;;;;;;4976180;28;20033;-64
2023/10/17 05:07:06;;;;;;;10.98;3.10;;;;;;;;;;4976148;28;20023;-64
2023/10/17 06:17:40;;;;;;;7.10;2.58;;;;;;;;;;4974890;28;20073;-64
2023/10/17 06:20:11;;;;;;;5.55;2.60;;;;;;;;;;4975124;28;20471;-64
2023/10/17 06:26:39;;;;;;;4.57;2.85;;;;;;;;;;4974762;28;20037;-64
2023/10/17 06:31:10;;;;;;;4.93;2.58;;;;;;;;;;4974655;28;20022;-64
2023/10/17 06:33:35;;;;;;;3.45;2.20;;;;;;;;;;4974678;28;20081;-64
2023/10/17 06:36:13;;;;;;;4.22;2.60;;;;;;;;;;4974470;28;20019;-64
2023/10/17 06:38:46;;;;;;;8.27;2.50;;;;;;;;;;4974644;28;20069;-64
2023/10/17 06:41:14;;;;;;;5.40;2.28;;;;;;;;;;4974821;28;20054;-64
2023/10/17 06:43:40;;;;;;;4.53;2.58;;;;;;;;;;4973330;28;20025;-64
2023/10/17 06:46:12;;;;;;;5.97;2.90;;;;;;;;;;4974767;28;20034;-64
2023/10/17 06:48:37;;;;;;;7.88;2.97;;;;;;;;;;4974812;28;20026;-64
2023/10/17 06:53:34;;;;;;;6.63;3.28;;;;;;;;;;4974470;28;20605;-64
2023/10/17 06:56:04;;;;;;;8.52;2.80;;;;;;;;;;4974609;28;20081;-64
2023/10/17 06:58:32;;;;;;;3.22;2.28;;;;;;;;;;4974386;28;20050;-64
2023/10/17 07:00:59;;;;;;;4.97;3.03;;;;;;;;;;4974361;28;20069;-64
2023/10/17 07:03:28;;;;;;;3.00;2.20;;;;;;;;;;4974398;28;20426;-64
2023/10/17 07:06:03;;;;;;;6.03;2.70;;;;;;;;;;4974401;28;20023;-64
2023/10/17 07:08:36;;;;;;;6.32;3.00;;;;;;;;;;4974612;28;20026;-64
2023/10/17 07:13:49;;;;;;;5.22;2.70;;;;;;;;;;4974321;28;20499;-64
2023/10/17 07:16:24;;;;;;;5.80;3.13;;;;;;;;;;4974240;28;20103;-64
2023/10/17 07:18:51;;;;;;;6.03;3.13;;;;;;;;;;4974463;28;20023;-64
2023/10/17 07:21:22;;;;;;;5.72;3.30;;;;;;;;;;4974429;28;20436;-64
2023/10/17 07:23:48;;;;;;;4.85;2.97;;;;;;;;;;4974163;28;20022;-64
2023/10/17 07:28:54;;;;;;;11.85;3.38;;;;;;;;;;4974480;28;20023;-64
2023/10/17 07:31:22;;;;;;;6.45;3.15;;;;;;;;;;4974081;28;20037;-64
2023/10/17 07:34:16;;;;;;;3.72;2.83;;;;;;;;;;4974314;28;20030;-64
2023/10/17 07:36:43;;;;;;;5.80;3.53;;;;;;;;;;4974090;28;20094;-64
2023/10/17 07:39:22;;;;;;;7.38;3.13;;;;;;;;;;4974138;28;20604;-64
2023/10/17 07:41:53;;;;;;;6.25;3.05;;;;;;;;;;4973995;28;20026;-64
2023/10/17 07:44:21;;;;;;;7.43;3.55;;;;;;;;;;4974144;28;20031;-64
2023/10/17 07:46:50;;;;;;;5.82;3.30;;;;;;;;;;4974266;28;20033;-64
2023/10/17 07:49:26;;;;;;;5.55;3.58;;;;;;;;;;4977234;28;20411;-64
2023/10/17 07:51:52;;;;;;;8.48;3.70;;;;;;;;;;4977441;28;20018;-64
2023/10/17 07:54:18;;;;;;;7.28;3.88;;;;;;;;;;4977358;28;20026;-64
2023/10/17 07:56:50;;;;;;;8.13;3.88;;;;;;;;;;4977386;28;20047;-64
2023/10/17 07:59:27;;;;;;;7.75;3.88;;;;;;;;;;4977635;28;20391;-64
2023/10/17 08:01:58;;;;;;;6.63;4.07;;;;;;;;;;4977585;28;20372;-64
2023/10/17 08:04:29;;;;;;;9.05;4.22;;;;;;;;;;4977257;28;20023;-64
2023/10/17 08:06:56;;;;;;;6.20;3.38;;;;;;;;;;4977326;28;20044;-64
2023/10/17 08:11:51;;;;;;;6.43;3.90;;;;;;;;;;4977042;28;20146;-64
2023/10/17 08:14:18;;;;;;;6.22;3.92;;;;;;;;;;4977370;28;20545;-64
2023/10/17 08:16:43;;;;;;;8.00;4.05;;;;;;;;;;4977334;28;20027;-64
2023/10/17 08:19:15;;;;;;;10.68;4.25;;;;;;;;;;4976937;28;20038;-64
2023/10/17 08:22:10;;;;;;;8.20;4.55;;;;;;;;;;4977236;28;20038;-64
2023/10/17 08:29:49;;;;;;;10.13;3.72;;;;;;;;;;4976816;28;20023;-64
2023/10/17 08:34:47;;;;;;;6.90;3.70;;;;;;;;;;4977064;28;20019;-64
2023/10/17 08:37:19;;;;;;;9.70;4.05;;;;;;;;;;4976910;28;20057;-64
2023/10/17 08:42:12;;;;;;;7.70;3.92;;;;;;;;;;4976969;28;20035;-64
2023/10/17 08:44:39;;;;;;;10.20;4.10;;;;;;;;;;4976814;28;20085;-64
2023/10/17 08:47:04;;;;;;;7.32;4.15;;;;;;;;;;4976523;28;20037;-64
2023/10/17 08:49:31;;;;;;;10.00;4.60;;;;;;;;;;4976680;28;20015;-64
2023/10/17 08:51:57;;;;;;;7.28;4.28;;;;;;;;;;4976596;28;20031;-64
2023/10/17 08:54:29;;;;;;;5.97;3.80;;;;;;;;;;4976627;28;20486;-67
2023/10/17 08:56:54;;;;;;;8.30;3.92;;;;;;;;;;4976350;28;20023;-67
2023/10/17 09:04:43;;;;;;;6.93;3.92;;;;;;;;;;4976517;28;20019;-67
2023/10/17 09:07:09;;;;;;;11.13;4.38;;;;;;;;;;4976100;28;20030;-67
2023/10/17 09:09:34;;;;;;;8.43;3.75;;;;;;;;;;4976076;28;20109;-67
2023/10/17 09:14:48;;;;;;;6.85;4.03;;;;;;;;;;4976226;28;20104;-67
2023/10/17 09:17:17;;;;;;;7.43;3.78;;;;;;;;;;4976220;28;20030;-67
2023/10/17 09:19:51;;;;;;;7.85;3.65;;;;;;;;;;4976162;28;20383;-67
2023/10/17 09:22:17;;;;;;;7.38;3.50;;;;;;;;;;4976129;28;20467;-67
2023/10/17 09:24:48;;;;;;;6.15;3.60;;;;;;;;;;4975814;28;20023;-67
2023/10/17 09:27:14;;;;;;;9.75;3.78;;;;;;;;;;4974493;28;20027;-67
2023/10/17 09:29:47;;;;;;;6.15;3.40;;;;;;;;;;4975961;28;20420;-67
2023/10/17 09:32:30;;;;;;;6.85;3.60;;;;;;;;;;4975840;28;20105;-66
2023/10/17 09:34:56;;;;;;;4.68;3.08;;;;;;;;;;4975881;28;20493;-67
2023/10/17 09:37:21;;;;;;;5.38;3.45;;;;;;;;;;4975585;28;20030;-67
2023/10/17 09:39:47;;;;;;;6.88;3.80;;;;;;;;;;4975789;28;20019;-67
2023/10/17 09:42:13;;;;;;;8.50;4.10;;;;;;;;;;4975416;28;20031;-67
2023/10/17 09:44:38;;;;;;;6.60;3.50;;;;;;;;;;4975517;28;20069;-67
2023/10/17 09:47:06;;;;;;;6.00;3.78;;;;;;;;;;4975617;28;20031;-67
2023/10/17 09:49:43;;;;;;;7.60;3.55;;;;;;;;;;4975343;28;20019;-66
2023/10/17 09:52:09;;;;;;;7.53;4.03;;;;;;;;;;4975183;28;20030;-67
2023/10/17 09:54:35;;;;;;;10.45;4.65;;;;;;;;;;4975150;28;20026;-67
2023/10/17 09:57:02;;;;;;;6.70;3.70;;;;;;;;;;4975231;28;20026;-66
2023/10/17 09:59:31;;;;;;;8.40;4.45;;;;;;;;;;4975170;28;20106;-66
2023/10/17 10:01:57;;;;;;;4.88;3.67;;;;;;;;;;4975168;28;20407;-67
2023/10/17 10:04:22;;;;;;;8.20;3.88;;;;;;;;;;4975238;28;20035;-64
2023/10/17 10:06:47;;;;;;;7.25;3.72;;;;;;;;;;4975079;28;20054;-64
2023/10/17 10:09:18;;;;;;;6.60;4.23;;;;;;;;;;4975031;28;20026;-64
2023/10/17 10:11:50;;;;;;;7.80;4.60;;;;;;;;;;4974322;28;20055;-65
2023/10/17 10:14:30;;;;;;;7.05;4.40;;;;;;;;;;4975047;28;20431;-64
2023/10/17 10:17:00;;;;;;;8.45;4.40;;;;;;;;;;4975141;28;20467;-65
2023/10/17 10:19:46;;;;;;;9.32;4.80;;;;;;;;;;4975144;28;20073;-64
2023/10/17 10:22:12;;;;;;;8.57;5.03;;;;;;;;;;4974767;28;20114;-64
2023/10/17 10:24:39;;;;;;;9.63;4.70;;;;;;;;;;4974999;28;20078;-64
2023/10/17 10:27:11;;;;;;;6.72;4.40;;;;;;;;;;4974719;28;20050;-64
2023/10/17 10:29:37;;;;;;;8.45;3.67;;;;;;;;;;4975044;28;20428;-65
2023/10/17 10:32:06;;;;;;;8.73;4.03;;;;;;;;;;4974887;28;20031;-65
2023/10/17 10:34:37;;;;;;;7.55;4.13;;;;;;;;;;4974688;28;20517;-65
2023/10/17 10:37:03;;;;;;;10.27;4.43;;;;;;;;;;4974635;28;20022;-64
2023/10/17 10:39:30;;;;;;;7.05;3.95;;;;;;;;;;4974562;28;20073;-64
2023/10/17 10:42:00;;;;;;;8.18;3.78;;;;;;;;;;4974568;28;20098;-64
2023/10/17 10:44:26;;;;;;;8.18;4.30;;;;;;;;;;4974851;28;20403;-64
2023/10/17 10:46:52;;;;;;;7.40;4.20;;;;;;;;;;4974779;28;20022;-64
2023/10/17 10:49:24;;;;;;;8.40;4.35;;;;;;;;;;4974717;28;20372;-64
2023/10/17 10:51:50;;;;;;;7.13;4.45;;;;;;;;;;4974683;28;20026;-64
2023/10/17 10:54:17;;;;;;;8.90;3.70;;;;;;;;;;4974465;28;20384;-64
2023/10/17 10:56:49;;;;;;;7.70;3.83;;;;;;;;;;4974448;28;20066;-65
2023/10/17 10:59:19;;;;;;;5.22;3.30;;;;;;;;;;4974725;28;20069;-64
2023/10/17 11:01:47;;;;;;;6.35;3.55;;;;;;;;;;4974646;28;20392;-65
2023/10/17 11:04:12;;;;;;;7.10;3.92;;;;;;;;;;4974416;28;20035;-65
2023/10/17 11:06:38;;;;;;;8.80;4.27;;;;;;;;;;4974382;28;20483;-64
2023/10/17 11:09:07;;;;;;;7.47;4.40;;;;;;;;;;4974587;28;20113;-64
2023/10/17 11:11:42;;;;;;;8.85;3.97;;;;;;;;;;4974010;28;20050;-64
2023/10/17 11:14:14;;;;;;;7.85;4.22;;;;;;;;;;4974493;28;20015;-64
2023/10/17 11:16:39;;;;;;;8.32;4.03;;;;;;;;;;4974244;28;20027;-64
2023/10/17 11:19:05;;;;;;;6.27;3.73;;;;;;;;;;4974508;28;20027;-64
2023/10/17 11:21:31;;;;;;;6.82;3.88;;;;;;;;;;4974211;28;20263;-64
2023/10/17 11:24:00;;;;;;;6.85;3.78;;;;;;;;;;4977247;28;20034;-64
2023/10/17 11:26:28;;;;;;;8.07;4.03;;;;;;;;;;4978019;28;20427;-64
2023/10/17 11:28:53;;;;;;;8.68;3.67;;;;;;;;;;4978194;28;20034;-64
2023/10/17 11:31:21;;;;;;;9.00;3.58;;;;;;;;;;4977862;28;20379;-64
2023/10/17 11:33:54;;;;;;;5.53;3.00;;;;;;;;;;4977891;28;20023;-64
2023/10/17 11:36:21;;;;;;;6.00;3.30;;;;;;;;;;4977785;28;20042;-64
2023/10/17 11:38:53;;;;;;;5.97;3.63;;;;;;;;;;4977694;28;20030;-64
2023/10/17 11:41:19;;;;;;;;;;;;;;;;;;4978193;28;20031;-64
2023/10/17 11:43:51;;;;;;;9.63;3.25;;;;;;;;;;4977654;28;19957;-64
2023/10/17 11:46:32;;;;;;;8.63;3.35;;;;;;;;;;4977701;28;20484;-64
2023/10/17 11:49:21;;;;;;;7.55;3.70;;;;;;;;;;4977635;28;20506;-64
2023/10/17 11:52:04;;;;;;;7.28;3.65;;;;;;;;;;4977437;28;20077;-64
2023/10/17 11:54:29;;;;;;;;;;;;;;;;;;4978057;28;20055;-64
2023/10/17 11:56:55;;;;;;;8.27;3.08;;;;;;;;;;4977719;28;19942;-64
2023/10/17 11:59:20;;;;;;;8.30;3.30;;;;;;;;;;4976333;28;20029;-64
2023/10/17 12:01:45;;;;;;;7.70;3.85;;;;;;;;;;4977413;28;20074;-64
2023/10/17 12:04:11;;;;;;;6.60;3.55;;;;;;;;;;4977346;28;20070;-64
2023/10/17 12:06:39;;;;;;;6.03;3.22;;;;;;;;;;4977254;28;20026;-64
2023/10/17 12:12:03;;;;;;;6.45;3.25;;;;;;;;;;4965343;28;20137;-64
2023/10/17 12:14:28;;;;;;;5.35;3.03;;;;;;;;;;4977381;28;20050;-64
2023/10/17 12:16:53;;;;;;;6.72;3.50;;;;;;;;;;4977388;28;20527;-64
2023/10/17 12:19:22;;;;;;;5.95;3.20;;;;;;;;;;4976989;28;20030;-64
2023/10/17 12:21:48;;;;;;;5.75;3.55;;;;;;;;;;4977029;28;20418;-65
2023/10/17 12:24:19;;;;;;;6.13;3.33;;;;;;;;;;4977280;28;20387;-67
2023/10/17 12:26:45;;;;;;;5.57;3.25;;;;;;;;;;4975638;28;20027;-67
2023/10/17 12:29:11;;;;;;;5.88;3.35;;;;;;;;;;4977135;28;20030;-67
2023/10/17 12:31:36;;;;;;;6.85;3.00;;;;;;;;;;4977028;28;20471;-66
2023/10/17 12:34:01;;;;;;;5.80;3.20;;;;;;;;;;4976449;28;20383;-66
2023/10/17 12:36:27;;;;;;;8.03;2.93;;;;;;;;;;4976757;28;20031;-67
2023/10/17 12:38:53;;;;;;;8.05;3.50;;;;;;;;;;4976620;28;20057;-67
2023/10/17 12:41:19;;;;;;;6.03;2.70;;;;;;;;;;4976929;28;20027;-67
2023/10/17 12:43:44;;;;;;;7.68;3.28;;;;;;;;;;4976533;28;20105;-67
2023/10/17 12:46:10;;;;;;;7.03;2.90;;;;;;;;;;4976628;28;20066;-67
2023/10/17 12:48:35;;;;;;;6.25;3.20;;;;;;;;;;4976808;28;20272;-67
2023/10/17 12:51:11;;;;;;;5.77;3.07;;;;;;;;;;4976636;28;20023;-67
2023/10/17 12:53:36;;;;;;;6.05;2.90;;;;;;;;;;4976690;28;20245;-67
2023/10/17 12:56:04;;;;;;;6.50;2.60;;;;;;;;;;4976291;28;20097;-67
2023/10/17 12:58:32;;;;;;;9.25;3.35;;;;;;;;;;4976589;28;20605;-67
2023/10/17 13:00:58;;;;;;;6.72;2.95;;;;;;;;;;4976504;28;20043;-67
2023/10/17 13:03:23;;;;;;;6.40;2.78;;;;;;;;;;4976224;28;20073;-67
2023/10/17 13:05:50;;;;;;;4.97;2.63;;;;;;;;;;4976244;28;20106;-67
2023/10/17 13:08:15;;;;;;;6.00;2.85;;;;;;;;;;4976142;28;20050;-67
2023/10/17 13:10:41;;;;;;;10.35;2.67;;;;;;;;;;4976002;28;20099;-66
2023/10/17 13:13:06;;;;;;;5.80;2.58;;;;;;;;;;4975941;28;20026;-67
2023/10/17 13:15:31;;;;;;;5.70;2.77;;;;;;;;;;4976059;28;20030;-67
2023/10/17 13:18:00;;;;;;;3.70;2.10;;;;;;;;;;4976041;28;20042;-67
2023/10/17 13:20:28;;;;;;;3.58;2.22;;;;;;;;;;4976133;28;20029;-67
2023/10/17 13:22:54;;;;;;;5.80;2.60;;;;;;;;;;4975909;28;20031;-67
2023/10/17 13:25:20;;;;;;;3.90;2.08;;;;;;;;;;4975824;28;20019;-67
2023/10/17 13:27:45;;;;;;;4.25;2.20;;;;;;;;;;4976046;28;20379;-67
2023/10/17 13:30:11;;;;;;;4.83;2.20;;;;;;;;;;4975976;28;20027;-67
2023/10/17 13:32:36;;;;;;;6.05;2.50;;;;;;;;;;4975892;28;20026;-67
2023/10/17 13:35:01;;;;;;;5.68;2.38;;;;;;;;;;4976061;28;20025;-64
2023/10/17 13:37:30;;;;;;;3.88;2.08;;;;;;;;;;4975868;28;20080;-64
2023/10/17 13:39:55;;;;;;;6.13;2.47;;;;;;;;;;4975594;28;20019;-64
2023/10/17 13:42:20;;;;;;;4.95;2.72;;;;;;;;;;4975571;28;20081;-64
2023/10/17 13:44:46;;;;;;;4.80;1.92;;;;;;;;;;4975377;28;20058;-64
2023/10/17 13:47:11;;;;;;;5.50;2.27;;;;;;;;;;4975136;28;20466;-64
2023/10/17 13:49:36;;;;;;;2.93;2.00;;;;;;;;;;4975409;28;20025;-64
2023/10/17 13:52:03;;;;;;;3.40;2.05;;;;;;;;;;4975529;28;20022;-64
2023/10/17 13:54:34;;;;;;;5.22;2.25;;;;;;;;;;4975468;28;20466;-64
2023/10/17 13:56:59;;;;;;;5.65;2.33;;;;;;;;;;4975284;28;20023;-65
2023/10/17 13:59:38;;;;;;;11.60;2.67;;;;;;;;;;4975485;28;20023;-64
2023/10/17 14:02:04;;;;;;;3.42;2.00;;;;;;;;;;4975384;28;20511;-64
2023/10/17 14:04:29;;;;;;;6.05;2.28;;;;;;;;;;4975404;28;20102;-64
2023/10/17 14:06:56;;;;;;;4.07;2.20;;;;;;;;;;4975123;28;20399;-64
2023/10/17 14:09:23;;;;;;;4.45;1.85;;;;;;;;;;4975030;28;20026;-64
2023/10/17 14:11:50;;;;;;;3.90;2.30;;;;;;;;;;4974837;28;20498;-64
2023/10/17 14:14:16;;;;;;;4.07;1.92;;;;;;;;;;4975229;28;20438;-64
2023/10/17 14:16:41;;;;;;;6.82;2.05;;;;;;;;;;4975164;28;20058;-64
2023/10/17 14:19:15;;;;;;;5.97;2.13;;;;;;;;;;4974998;28;20459;-64
2023/10/17 14:21:43;;;;;;;3.72;1.95;;;;;;;;;;4974970;28;20033;-64
2023/10/17 14:24:20;;;;;;;4.78;2.00;;;;;;;;;;4974782;28;20023;-64
2023/10/17 14:26:48;;;;;;;7.30;1.92;;;;;;;;;;4986742;28;20030;-64
2023/10/17 14:29:14;;;;;;;5.45;2.20;;;;;;;;;;4993666;28;20026;-64
2023/10/17 14:31:39;;;;;;;3.45;1.90;;;;;;;;;;4994103;28;20019;-64
2023/10/17 14:34:06;;;;;;;5.30;1.93;;;;;;;;;;4990113;28;20070;-64
2023/10/17 14:36:34;;;;;;;3.00;1.80;;;;;;;;;;4975387;28;20560;-64
2023/10/17 14:38:59;;;;;;;7.80;2.57;;;;;;;;;;4973884;28;20098;-64
2023/10/17 14:41:24;;;;;;;6.55;2.28;;;;;;;;;;4974380;28;20093;-64
2023/10/17 14:43:50;;;;;;;4.50;2.22;;;;;;;;;;4973935;28;20027;-64
2023/10/17 14:46:16;;;;;;;3.63;1.83;;;;;;;;;;4973698;28;20095;-64
2023/10/17 14:48:42;;;;;;;5.10;2.30;;;;;;;;;;4973845;28;20027;-64
2023/10/17 14:51:07;;;;;;;7.20;2.53;;;;;;;;;;4974445;28;20361;-63
2023/10/17 14:53:33;;;;;;;4.03;2.38;;;;;;;;;;4974392;28;20019;-63
2023/10/17 14:55:58;;;;;;;8.10;2.65;;;;;;;;;;4974412;28;20027;-63
2023/10/17 14:58:24;;;;;;;7.13;2.63;;;;;;;;;;4987006;28;20025;-63
2023/10/17 15:00:49;;;;;;;8.30;2.78;;;;;;;;;;4998193;28;20022;-63
2023/10/17 15:03:14;;;;;;;4.77;2.30;;;;;;;;;;4997862;28;20030;-63
2023/10/17 15:05:39;;;;;;;6.22;2.90;;;;;;;;;;4997925;28;20663;-63
2023/10/17 15:08:05;;;;;;;6.53;2.23;;;;;;;;;;4997820;28;20026;-63
2023/10/17 15:10:30;;;;;;;3.28;2.00;;;;;;;;;;4997577;28;20054;-63
2023/10/17 15:12:56;;;;;;;5.60;2.97;;;;;;;;;;4997910;28;20105;-63
2023/10/17 15:15:22;;;;;;;5.57;2.55;;;;;;;;;;4997690;28;20521;-63
2023/10/17 15:17:47;;;;;;;11.35;3.05;;;;;;;;;;4997872;28;20041;-63
2023/10/17 15:20:13;;;;;;;6.13;2.92;;;;;;;;;;4997863;28;20023;-63
2023/10/17 15:22:41;;;;;;;7.90;2.78;;;;;;;;;;4997617;28;20395;-63
2023/10/17 15:25:11;;;;;;;6.47;3.00;;;;;;;;;;4997445;28;20088;-63
2023/10/17 15:27:36;;;;;;;6.50;3.45;;;;;;;;;;4997199;28;20026;-62
2023/10/17 15:30:01;;;;;;;4.60;2.70;;;;;;;;;;4997422;28;20041;-63
2023/10/17 15:32:27;;;;;;;8.48;3.20;;;;;;;;;;4997585;28;20275;-62
2023/10/17 15:34:52;;;;;;;6.03;3.30;;;;;;;;;;4997326;28;20382;-62
2023/10/17 15:37:18;;;;;;;4.78;3.00;;;;;;;;;;4997552;28;20062;-63
2023/10/17 15:39:44;;;;;;;8.23;3.35;;;;;;;;;;4996563;28;20010;-63
2023/10/17 15:42:10;;;;;;;5.25;3.10;;;;;;;;;;4995220;28;20057;-63
2023/10/17 15:44:36;;;;;;;6.40;3.22;;;;;;;;;;4995831;28;20056;-63
2023/10/17 15:47:02;;;;;;;5.47;3.40;;;;;;;;;;4996445;28;20478;-63
2023/10/17 15:49:28;;;;;;;4.80;2.53;;;;;;;;;;4997167;28;20038;-63
2023/10/17 15:51:53;;;;;;;8.07;3.67;;;;;;;;;;4996977;28;20426;-63
2023/10/17 15:54:19;;;;;;;10.88;3.35;;;;;;;;;;4997244;28;20025;-67
2023/10/17 15:56:44;;;;;;;7.22;3.50;;;;;;;;;;4996908;28;20387;-66
2023/10/17 15:59:09;;;;;;;5.00;3.27;;;;;;;;;;4996946;28;20093;-67
2023/10/17 16:01:35;;;;;;;7.10;3.07;;;;;;;;;;4996851;28;20113;-66
2023/10/17 16:04:00;;;;;;;7.32;3.60;;;;;;;;;;4996757;28;20096;-66
2023/10/17 16:06:26;;;;;;;7.22;3.72;;;;;;;;;;4997037;28;20030;-67
2023/10/17 16:08:51;;;;;;;10.40;3.95;;;;;;;;;;4995997;28;20470;-67
2023/10/17 16:11:17;;;;;;;6.50;3.17;;;;;;;;;;4996523;28;20050;-66
2023/10/17 16:13:43;;;;;;;6.55;3.97;;;;;;;;;;4996853;28;20244;-66
2023/10/17 16:16:08;;;;;;;12.77;4.07;;;;;;;;;;4996856;28;20493;-67
2023/10/17 16:18:33;;;;;;;7.43;4.22;;;;;;;;;;4996784;28;20026;-66
2023/10/17 16:21:00;;;;;;;10.60;4.13;;;;;;;;;;4996485;28;20022;-66
2023/10/17 16:23:25;;;;;;;6.45;3.75;;;;;;;;;;4996710;28;20018;-67
2023/10/17 16:25:52;;;;;;;9.63;4.63;;;;;;;;;;4996410;28;20038;-67
2023/10/17 16:28:17;;;;;;;6.90;4.18;;;;;;;;;;4996595;28;20275;-67
2023/10/17 16:30:43;;;;;;;5.82;4.20;;;;;;;;;;4996322;28;20019;-66
2023/10/17 16:33:14;;;;;;;6.32;3.75;;;;;;;;;;4996165;28;20467;-67
2023/10/17 16:35:42;;;;;;;10.23;3.77;;;;;;;;;;4996287;28;20102;-66
2023/10/17 16:38:09;;;;;;;7.90;4.05;;;;;;;;;;4996485;28;20478;-67
2023/10/17 16:40:35;;;;;;;7.10;3.60;;;;;;;;;;4996394;28;20026;-66
2023/10/17 16:43:00;;;;;;;7.67;4.43;;;;;;;;;;4996066;28;20018;-67
2023/10/17 16:45:25;;;;;;;5.70;3.70;;;;;;;;;;4996094;28;20390;-66
2023/10/17 16:47:51;;;;;;;8.65;4.80;;;;;;;;;;4996251;28;20022;-67
2023/10/17 16:50:18;;;;;;;6.15;4.00;;;;;;;;;;4996206;28;20166;-67
2023/10/17 16:52:43;;;;;;;9.30;4.13;;;;;;;;;;4995889;28;20050;-67
2023/10/17 16:55:12;;;;;;;9.82;4.15;;;;;;;;;;4996043;28;20466;-67